sensor_id;sensor_type;location;lat;lon;timestamp;pressure;altitude;pressure_sealevel;temperature;humidity
5952;BME280;3001;42.622;23.194;2023-06-01T00:00:11;91495.34;;;16.39;97.09
5952;BME280;3001;42.622;23.194;2023-06-01T00:02:39;91496.31;;;16.47;96.48
5952;BME280;3001;42.622;23.194;2023-06-01T00:05:08;91493.34;;;16.60;95.39
5952;BME280;3001;42.622;23.194;2023-06-01T00:07:34;91487.19;;;16.68;93.96
5952;BME280;3001;42.622;23.194;2023-06-01T00:10:01;91489.94;;;16.60;95.21
5952;BME280;3001;42.622;23.194;2023-06-01T00:12:28;91481.28;;;16.71;93.52
5952;BME280;3001;42.622;23.194;2023-06-01T00:14:55;91489.75;;;16.53;94.71
5952;BME280;3001;42.622;23.194;2023-06-01T00:17:23;91487.25;;;16.56;93.88
5952;BME280;3001;42.622;23.194;2023-06-01T00:19:49;91482.06;;;16.60;93.49
5952;BME280;3001;42.622;23.194;2023-06-01T00:22:19;91473.34;;;16.44;93.76
5952;BME280;3001;42.622;23.194;2023-06-01T00:24:46;91483.66;;;16.49;93.52
5952;BME280;3001;42.622;23.194;2023-06-01T00:27:13;91485.06;;;16.22;94.35
5952;BME280;3001;42.622;23.194;2023-06-01T00:29:39;91484.53;;;16.05;95.71
5952;BME280;3001;42.622;23.194;2023-06-01T00:32:07;91476.44;;;16.10;95.62
5952;BME280;3001;42.622;23.194;2023-06-01T00:34:33;91474.47;;;16.07;94.55
5952;BME280;3001;42.622;23.194;2023-06-01T00:37:00;91485.50;;;16.00;94.79
5952;BME280;3001;42.622;23.194;2023-06-01T00:39:28;91482.00;;;16.08;95.69
5952;BME280;3001;42.622;23.194;2023-06-01T00:41:55;91484.06;;;16.03;95.08
5952;BME280;3001;42.622;23.194;2023-06-01T00:44:21;91472.06;;;15.90;95.39
5952;BME280;3001;42.622;23.194;2023-06-01T00:46:49;91470.44;;;15.85;95.28
5952;BME280;3001;42.622;23.194;2023-06-01T00:49:16;91476.88;;;15.76;96.90
5952;BME280;3001;42.622;23.194;2023-06-01T00:51:43;91480.91;;;15.73;97.02
5952;BME280;3001;42.622;23.194;2023-06-01T00:54:10;91474.00;;;15.57;97.65
5952;BME280;3001;42.622;23.194;2023-06-01T00:56:38;91474.13;;;15.61;97.98
5952;BME280;3001;42.622;23.194;2023-06-01T00:59:05;91487.13;;;15.69;95.97
5952;BME280;3001;42.622;23.194;2023-06-01T01:01:32;91482.63;;;15.58;95.69
5952;BME280;3001;42.622;23.194;2023-06-01T01:03:59;91481.50;;;15.47;96.12
5952;BME280;3001;42.622;23.194;2023-06-01T01:06:37;91476.91;;;15.32;97.50
5952;BME280;3001;42.622;23.194;2023-06-01T01:09:17;91481.50;;;15.47;96.32
5952;BME280;3001;42.622;23.194;2023-06-01T01:11:52;91478.78;;;15.43;96.08
5952;BME280;3001;42.622;23.194;2023-06-01T01:14:25;91473.75;;;15.38;96.50
5952;BME280;3001;42.622;23.194;2023-06-01T01:16:59;91477.63;;;15.53;96.60
5952;BME280;3001;42.622;23.194;2023-06-01T01:19:41;91484.66;;;15.40;97.17
5952;BME280;3001;42.622;23.194;2023-06-01T01:22:20;91479.19;;;15.33;97.68
5952;BME280;3001;42.622;23.194;2023-06-01T01:25:09;91478.66;;;15.40;96.72
5952;BME280;3001;42.622;23.194;2023-06-01T01:28:06;91484.44;;;15.33;96.54
5952;BME280;3001;42.622;23.194;2023-06-01T01:30:37;91479.31;;;15.16;97.38
5952;BME280;3001;42.622;23.194;2023-06-01T01:33:07;91479.09;;;15.09;98.69
5952;BME280;3001;42.622;23.194;2023-06-01T01:35:36;91474.31;;;15.11;99.17
5952;BME280;3001;42.622;23.194;2023-06-01T01:38:04;91475.75;;;15.21;98.82
5952;BME280;3001;42.622;23.194;2023-06-01T01:40:30;91467.41;;;15.07;99.41
5952;BME280;3001;42.622;23.194;2023-06-01T01:42:57;91475.53;;;15.14;98.68
5952;BME280;3001;42.622;23.194;2023-06-01T01:45:25;91479.47;;;15.20;97.52
5952;BME280;3001;42.622;23.194;2023-06-01T01:47:58;91475.97;;;15.16;98.61
5952;BME280;3001;42.622;23.194;2023-06-01T01:50:34;91473.44;;;15.07;98.81
5952;BME280;3001;42.622;23.194;2023-06-01T01:53:03;91473.09;;;15.09;98.78
5952;BME280;3001;42.622;23.194;2023-06-01T01:55:33;91478.88;;;15.14;97.40
5952;BME280;3001;42.622;23.194;2023-06-01T01:58:01;91471.25;;;15.21;97.57
5952;BME280;3001;42.622;23.194;2023-06-01T02:00:29;91482.25;;;15.35;96.90
5952;BME280;3001;42.622;23.194;2023-06-01T02:02:58;91488.94;;;15.45;96.71
5952;BME280;3001;42.622;23.194;2023-06-01T02:05:25;91485.56;;;15.44;96.68
5952;BME280;3001;42.622;23.194;2023-06-01T02:07:51;91487.41;;;15.44;96.54
5952;BME280;3001;42.622;23.194;2023-06-01T02:10:18;91480.72;;;15.34;96.71
5952;BME280;3001;42.622;23.194;2023-06-01T02:12:45;91494.50;;;15.43;96.87
5952;BME280;3001;42.622;23.194;2023-06-01T02:15:12;91486.72;;;15.35;97.41
5952;BME280;3001;42.622;23.194;2023-06-01T02:17:38;91482.19;;;15.67;96.14
5952;BME280;3001;42.622;23.194;2023-06-01T02:20:09;91481.19;;;15.48;97.79
5952;BME280;3001;42.622;23.194;2023-06-01T02:22:36;91479.31;;;15.37;97.88
5952;BME280;3001;42.622;23.194;2023-06-01T02:25:02;91481.41;;;15.43;98.84
5952;BME280;3001;42.622;23.194;2023-06-01T02:27:30;91478.38;;;15.53;98.16
5952;BME280;3001;42.622;23.194;2023-06-01T02:29:57;91478.38;;;15.77;96.94
5952;BME280;3001;42.622;23.194;2023-06-01T02:32:23;91482.88;;;15.76;97.40
5952;BME280;3001;42.622;23.194;2023-06-01T02:34:50;91480.78;;;15.70;98.57
5952;BME280;3001;42.622;23.194;2023-06-01T02:37:18;91472.50;;;15.80;97.70
5952;BME280;3001;42.622;23.194;2023-06-01T02:39:45;91481.91;;;15.93;96.18
5952;BME280;3001;42.622;23.194;2023-06-01T02:42:12;91480.50;;;15.95;95.80
5952;BME280;3001;42.622;23.194;2023-06-01T02:44:39;91477.97;;;15.99;95.74
5952;BME280;3001;42.622;23.194;2023-06-01T02:47:06;91481.66;;;15.98;95.13
5952;BME280;3001;42.622;23.194;2023-06-01T02:49:33;91478.84;;;15.91;94.96
5952;BME280;3001;42.622;23.194;2023-06-01T02:52:00;91483.97;;;15.99;93.95
5952;BME280;3001;42.622;23.194;2023-06-01T02:54:28;91487.59;;;16.07;93.63
5952;BME280;3001;42.622;23.194;2023-06-01T02:56:54;91476.13;;;15.99;94.80
5952;BME280;3001;42.622;23.194;2023-06-01T02:59:21;91478.31;;;15.97;95.25
5952;BME280;3001;42.622;23.194;2023-06-01T03:01:48;91469.03;;;15.88;95.70
5952;BME280;3001;42.622;23.194;2023-06-01T03:04:14;91474.03;;;15.81;95.81
5952;BME280;3001;42.622;23.194;2023-06-01T03:06:42;91460.16;;;15.92;94.69
5952;BME280;3001;42.622;23.194;2023-06-01T03:09:10;91472.72;;;15.99;95.00
5952;BME280;3001;42.622;23.194;2023-06-01T03:11:40;91475.47;;;16.02;94.93
5952;BME280;3001;42.622;23.194;2023-06-01T03:14:06;91480.38;;;16.04;94.18
5952;BME280;3001;42.622;23.194;2023-06-01T03:16:33;91481.69;;;16.10;93.80
5952;BME280;3001;42.622;23.194;2023-06-01T03:19:00;91484.19;;;16.06;94.13
5952;BME280;3001;42.622;23.194;2023-06-01T03:21:27;91481.81;;;16.13;93.14
5952;BME280;3001;42.622;23.194;2023-06-01T03:23:53;91482.09;;;16.00;93.92
5952;BME280;3001;42.622;23.194;2023-06-01T03:26:20;91484.50;;;15.69;95.79
5952;BME280;3001;42.622;23.194;2023-06-01T03:28:48;91487.34;;;15.64;97.48
5952;BME280;3001;42.622;23.194;2023-06-01T03:31:15;91489.06;;;15.48;98.51
5952;BME280;3001;42.622;23.194;2023-06-01T03:33:42;91486.53;;;15.52;98.49
5952;BME280;3001;42.622;23.194;2023-06-01T03:36:08;91495.09;;;15.72;97.87
5952;BME280;3001;42.622;23.194;2023-06-01T03:38:35;91493.75;;;15.66;97.70
5952;BME280;3001;42.622;23.194;2023-06-01T03:41:02;91491.81;;;15.75;98.14
5952;BME280;3001;42.622;23.194;2023-06-01T03:43:28;91483.94;;;15.63;98.41
5952;BME280;3001;42.622;23.194;2023-06-01T03:45:57;91486.03;;;15.82;98.39
5952;BME280;3001;42.622;23.194;2023-06-01T03:48:23;91488.53;;;15.90;98.31
5952;BME280;3001;42.622;23.194;2023-06-01T03:50:50;91486.59;;;15.99;98.27
5952;BME280;3001;42.622;23.194;2023-06-01T03:53:17;91481.56;;;15.82;99.59
5952;BME280;3001;42.622;23.194;2023-06-01T03:55:44;91499.25;;;15.97;99.60
5952;BME280;3001;42.622;23.194;2023-06-01T03:58:11;91483.53;;;15.97;99.16
5952;BME280;3001;42.622;23.194;2023-06-01T04:00:37;91495.63;;;16.02;99.47
5952;BME280;3001;42.622;23.194;2023-06-01T04:03:05;91496.31;;;16.11;99.32
5952;BME280;3001;42.622;23.194;2023-06-01T04:05:33;91498.94;;;16.11;99.30
5952;BME280;3001;42.622;23.194;2023-06-01T04:08:01;91485.84;;;16.11;99.09
5952;BME280;3001;42.622;23.194;2023-06-01T04:10:28;91503.63;;;16.17;98.72
5952;BME280;3001;42.622;23.194;2023-06-01T04:12:55;91503.44;;;16.34;98.31
5952;BME280;3001;42.622;23.194;2023-06-01T04:15:22;91504.28;;;16.26;98.03
5952;BME280;3001;42.622;23.194;2023-06-01T04:17:49;91508.53;;;16.31;97.67
5952;BME280;3001;42.622;23.194;2023-06-01T04:20:17;91509.63;;;16.42;96.55
5952;BME280;3001;42.622;23.194;2023-06-01T04:22:45;91506.81;;;16.35;97.45
5952;BME280;3001;42.622;23.194;2023-06-01T04:25:13;91504.41;;;16.42;97.27
5952;BME280;3001;42.622;23.194;2023-06-01T04:27:43;91496.31;;;16.35;96.84
5952;BME280;3001;42.622;23.194;2023-06-01T04:30:11;91507.56;;;16.59;97.00
5952;BME280;3001;42.622;23.194;2023-06-01T04:32:39;91511.16;;;16.55;97.55
5952;BME280;3001;42.622;23.194;2023-06-01T04:35:07;91513.66;;;16.51;97.82
5952;BME280;3001;42.622;23.194;2023-06-01T04:37:37;91519.22;;;16.74;97.10
5952;BME280;3001;42.622;23.194;2023-06-01T04:40:06;91520.75;;;16.75;97.53
5952;BME280;3001;42.622;23.194;2023-06-01T04:42:33;91524.47;;;16.62;98.48
5952;BME280;3001;42.622;23.194;2023-06-01T04:45:00;91524.16;;;16.63;99.59
5952;BME280;3001;42.622;23.194;2023-06-01T04:47:29;91520.31;;;16.73;98.73
5952;BME280;3001;42.622;23.194;2023-06-01T04:49:56;91517.13;;;16.79;99.21
5952;BME280;3001;42.622;23.194;2023-06-01T04:52:23;91522.97;;;17.00;98.93
5952;BME280;3001;42.622;23.194;2023-06-01T04:54:51;91516.56;;;17.13;98.39
5952;BME280;3001;42.622;23.194;2023-06-01T04:57:18;91524.44;;;17.13;98.48
5952;BME280;3001;42.622;23.194;2023-06-01T04:59:45;91514.88;;;17.05;99.44
5952;BME280;3001;42.622;23.194;2023-06-01T05:02:11;91521.31;;;17.08;99.39
5952;BME280;3001;42.622;23.194;2023-06-01T05:04:38;91519.56;;;17.12;99.45
5952;BME280;3001;42.622;23.194;2023-06-01T05:07:05;91526.34;;;17.13;99.95
5952;BME280;3001;42.622;23.194;2023-06-01T05:09:31;91523.72;;;17.13;100.00
5952;BME280;3001;42.622;23.194;2023-06-01T05:11:59;91524.88;;;17.15;100.00
5952;BME280;3001;42.622;23.194;2023-06-01T05:14:27;91522.78;;;17.21;100.00
5952;BME280;3001;42.622;23.194;2023-06-01T05:16:53;91524.56;;;17.17;100.00
5952;BME280;3001;42.622;23.194;2023-06-01T05:19:20;91512.84;;;17.14;100.00
5952;BME280;3001;42.622;23.194;2023-06-01T05:21:47;91521.00;;;17.37;100.00
5952;BME280;3001;42.622;23.194;2023-06-01T05:24:14;91522.38;;;17.46;100.00
5952;BME280;3001;42.622;23.194;2023-06-01T05:26:41;91518.00;;;17.50;100.00
5952;BME280;3001;42.622;23.194;2023-06-01T05:29:09;91513.41;;;17.47;100.00
5952;BME280;3001;42.622;23.194;2023-06-01T05:31:35;91519.72;;;17.58;100.00
5952;BME280;3001;42.622;23.194;2023-06-01T05:34:02;91522.09;;;17.63;100.00
5952;BME280;3001;42.622;23.194;2023-06-01T05:36:29;91523.72;;;17.67;100.00
5952;BME280;3001;42.622;23.194;2023-06-01T05:38:57;91518.06;;;17.81;100.00
5952;BME280;3001;42.622;23.194;2023-06-01T05:41:24;91514.75;;;17.84;100.00
5952;BME280;3001;42.622;23.194;2023-06-01T05:43:51;91514.38;;;17.70;100.00
5952;BME280;3001;42.622;23.194;2023-06-01T05:46:19;91515.16;;;17.70;100.00
5952;BME280;3001;42.622;23.194;2023-06-01T05:48:46;91516.16;;;17.81;100.00
5952;BME280;3001;42.622;23.194;2023-06-01T05:51:13;91525.94;;;17.96;100.00
5952;BME280;3001;42.622;23.194;2023-06-01T05:53:40;91519.91;;;17.96;100.00
5952;BME280;3001;42.622;23.194;2023-06-01T05:56:07;91524.50;;;17.99;100.00
5952;BME280;3001;42.622;23.194;2023-06-01T05:58:34;91519.94;;;18.27;100.00
5952;BME280;3001;42.622;23.194;2023-06-01T06:01:00;91525.25;;;18.15;100.00
5952;BME280;3001;42.622;23.194;2023-06-01T06:03:28;91529.84;;;18.18;100.00
5952;BME280;3001;42.622;23.194;2023-06-01T06:05:55;91529.19;;;18.21;100.00
5952;BME280;3001;42.622;23.194;2023-06-01T06:08:22;91524.69;;;18.37;100.00
5952;BME280;3001;42.622;23.194;2023-06-01T06:10:49;91531.22;;;18.43;100.00
5952;BME280;3001;42.622;23.194;2023-06-01T06:13:15;91531.28;;;18.46;100.00
5952;BME280;3001;42.622;23.194;2023-06-01T06:15:42;91528.31;;;18.48;100.00
5952;BME280;3001;42.622;23.194;2023-06-01T06:18:09;91532.47;;;18.49;100.00
5952;BME280;3001;42.622;23.194;2023-06-01T06:20:37;91535.13;;;18.49;100.00
5952;BME280;3001;42.622;23.194;2023-06-01T06:23:04;91535.84;;;18.65;100.00
5952;BME280;3001;42.622;23.194;2023-06-01T06:25:30;91530.66;;;18.68;100.00
5952;BME280;3001;42.622;23.194;2023-06-01T06:27:57;91536.53;;;18.62;100.00
5952;BME280;3001;42.622;23.194;2023-06-01T06:30:23;91535.44;;;18.63;100.00
5952;BME280;3001;42.622;23.194;2023-06-01T06:32:50;91533.97;;;18.81;100.00
5952;BME280;3001;42.622;23.194;2023-06-01T06:35:17;91534.19;;;18.91;100.00
5952;BME280;3001;42.622;23.194;2023-06-01T06:48:35;91545.63;;;20.35;90.26
5952;BME280;3001;42.622;23.194;2023-06-01T06:51:02;91540.75;;;20.14;92.37
5952;BME280;3001;42.622;23.194;2023-06-01T06:53:29;91547.72;;;20.03;89.80
5952;BME280;3001;42.622;23.194;2023-06-01T06:55:55;91536.19;;;19.92;91.52
5952;BME280;3001;42.622;23.194;2023-06-01T06:58:22;91544.81;;;19.89;94.31
5952;BME280;3001;42.622;23.194;2023-06-01T07:00:49;91548.47;;;19.85;90.40
5952;BME280;3001;42.622;23.194;2023-06-01T07:03:16;91526.38;;;19.70;94.58
5952;BME280;3001;42.622;23.194;2023-06-01T07:05:44;91545.84;;;20.04;94.52
5952;BME280;3001;42.622;23.194;2023-06-01T07:08:11;91542.78;;;20.02;96.12
5952;BME280;3001;42.622;23.194;2023-06-01T07:10:37;91536.34;;;20.22;96.78
5952;BME280;3001;42.622;23.194;2023-06-01T07:13:04;91542.09;;;20.27;96.77
5952;BME280;3001;42.622;23.194;2023-06-01T07:15:31;91538.47;;;20.35;97.29
5952;BME280;3001;42.622;23.194;2023-06-01T07:17:57;91545.78;;;20.45;96.86
5952;BME280;3001;42.622;23.194;2023-06-01T07:20:24;91542.47;;;20.52;93.53
5952;BME280;3001;42.622;23.194;2023-06-01T07:22:52;91539.41;;;20.46;93.18
5952;BME280;3001;42.622;23.194;2023-06-01T07:25:19;91538.44;;;20.58;95.61
5952;BME280;3001;42.622;23.194;2023-06-01T07:27:46;91537.53;;;20.73;93.15
5952;BME280;3001;42.622;23.194;2023-06-01T07:30:13;91538.34;;;20.77;94.03
5952;BME280;3001;42.622;23.194;2023-06-01T07:32:40;91538.78;;;20.82;91.75
5952;BME280;3001;42.622;23.194;2023-06-01T07:35:07;91538.94;;;20.89;90.89
5952;BME280;3001;42.622;23.194;2023-06-01T07:37:35;91537.59;;;21.02;90.71
5952;BME280;3001;42.622;23.194;2023-06-01T07:40:03;91528.69;;;21.13;93.16
5952;BME280;3001;42.622;23.194;2023-06-01T07:42:32;91524.63;;;21.19;95.24
5952;BME280;3001;42.622;23.194;2023-06-01T07:44:58;91526.22;;;21.24;91.79
5952;BME280;3001;42.622;23.194;2023-06-01T07:47:25;91528.66;;;21.39;94.21
5952;BME280;3001;42.622;23.194;2023-06-01T07:49:52;91525.63;;;21.41;93.65
5952;BME280;3001;42.622;23.194;2023-06-01T07:52:18;91525.41;;;21.53;92.88
5952;BME280;3001;42.622;23.194;2023-06-01T07:54:45;91522.66;;;21.42;92.21
5952;BME280;3001;42.622;23.194;2023-06-01T07:57:15;91518.03;;;21.65;94.16
5952;BME280;3001;42.622;23.194;2023-06-01T07:59:42;91520.34;;;21.70;95.09
5952;BME280;3001;42.622;23.194;2023-06-01T08:02:09;91531.38;;;21.76;94.62
5952;BME280;3001;42.622;23.194;2023-06-01T08:04:36;91521.59;;;21.80;95.17
5952;BME280;3001;42.622;23.194;2023-06-01T08:07:04;91517.19;;;21.94;96.55
5952;BME280;3001;42.622;23.194;2023-06-01T08:09:32;91525.75;;;22.21;95.39
5952;BME280;3001;42.622;23.194;2023-06-01T08:11:59;91522.47;;;22.34;93.20
5952;BME280;3001;42.622;23.194;2023-06-01T08:14:27;91522.03;;;22.25;91.24
5952;BME280;3001;42.622;23.194;2023-06-01T08:16:54;91521.41;;;22.39;93.84
5952;BME280;3001;42.622;23.194;2023-06-01T08:19:21;91514.81;;;22.66;90.90
5952;BME280;3001;42.622;23.194;2023-06-01T08:21:47;91522.13;;;22.83;89.93
5952;BME280;3001;42.622;23.194;2023-06-01T08:24:14;91508.22;;;22.99;91.02
5952;BME280;3001;42.622;23.194;2023-06-01T08:26:41;91518.84;;;23.03;91.33
5952;BME280;3001;42.622;23.194;2023-06-01T08:29:08;91524.84;;;22.93;91.24
5952;BME280;3001;42.622;23.194;2023-06-01T08:31:36;91515.69;;;22.84;90.70
5952;BME280;3001;42.622;23.194;2023-06-01T08:34:03;91505.97;;;23.01;90.61
5952;BME280;3001;42.622;23.194;2023-06-01T08:36:30;91510.63;;;23.11;91.38
5952;BME280;3001;42.622;23.194;2023-06-01T08:38:57;91515.25;;;23.32;90.94
5952;BME280;3001;42.622;23.194;2023-06-01T08:41:29;91511.66;;;23.03;92.49
5952;BME280;3001;42.622;23.194;2023-06-01T08:44:02;91515.56;;;23.16;91.60
5952;BME280;3001;42.622;23.194;2023-06-01T08:46:31;91510.88;;;22.99;92.04
5952;BME280;3001;42.622;23.194;2023-06-01T08:48:59;91506.28;;;22.90;91.68
5952;BME280;3001;42.622;23.194;2023-06-01T08:51:27;91509.31;;;22.92;91.71
5952;BME280;3001;42.622;23.194;2023-06-01T08:53:56;91515.38;;;22.92;91.77
5952;BME280;3001;42.622;23.194;2023-06-01T08:56:23;91513.00;;;22.77;92.74
5952;BME280;3001;42.622;23.194;2023-06-01T08:58:53;91515.28;;;22.75;92.80
5952;BME280;3001;42.622;23.194;2023-06-01T09:01:21;91511.50;;;22.76;93.38
5952;BME280;3001;42.622;23.194;2023-06-01T09:03:49;91502.69;;;22.61;94.17
5952;BME280;3001;42.622;23.194;2023-06-01T09:06:18;91505.44;;;22.79;93.05
5952;BME280;3001;42.622;23.194;2023-06-01T09:08:45;91506.97;;;22.80;93.52
5952;BME280;3001;42.622;23.194;2023-06-01T09:11:12;91499.06;;;22.87;94.07
5952;BME280;3001;42.622;23.194;2023-06-01T09:13:40;91507.38;;;22.85;94.62
5952;BME280;3001;42.622;23.194;2023-06-01T09:16:07;91506.97;;;22.80;95.60
5952;BME280;3001;42.622;23.194;2023-06-01T09:18:34;91504.78;;;22.92;95.77
5952;BME280;3001;42.622;23.194;2023-06-01T09:21:10;91507.81;;;22.91;95.70
5952;BME280;3001;42.622;23.194;2023-06-01T09:23:39;91501.38;;;22.95;95.45
5952;BME280;3001;42.622;23.194;2023-06-01T09:26:09;91505.97;;;23.01;95.42
5952;BME280;3001;42.622;23.194;2023-06-01T09:28:55;91508.50;;;22.81;96.54
5952;BME280;3001;42.622;23.194;2023-06-01T09:31:35;91499.41;;;22.82;96.83
5952;BME280;3001;42.622;23.194;2023-06-01T09:34:02;91504.31;;;22.80;96.79
5952;BME280;3001;42.622;23.194;2023-06-01T09:36:29;91501.34;;;22.88;95.43
5952;BME280;3001;42.622;23.194;2023-06-01T09:39:02;91506.69;;;22.92;94.93
5952;BME280;3001;42.622;23.194;2023-06-01T09:41:47;91498.72;;;22.95;92.61
5952;BME280;3001;42.622;23.194;2023-06-01T09:44:22;91497.56;;;22.89;94.70
5952;BME280;3001;42.622;23.194;2023-06-01T09:46:50;91497.59;;;22.92;94.26
5952;BME280;3001;42.622;23.194;2023-06-01T09:49:22;91495.34;;;22.94;93.42
5952;BME280;3001;42.622;23.194;2023-06-01T09:51:50;91496.03;;;22.85;93.36
5952;BME280;3001;42.622;23.194;2023-06-01T09:54:29;91494.41;;;22.66;93.57
5952;BME280;3001;42.622;23.194;2023-06-01T09:56:58;91492.09;;;22.65;92.26
5952;BME280;3001;42.622;23.194;2023-06-01T09:59:26;91496.53;;;22.50;91.60
5952;BME280;3001;42.622;23.194;2023-06-01T10:01:55;91488.78;;;22.28;92.14
5952;BME280;3001;42.622;23.194;2023-06-01T10:04:24;91493.97;;;22.14;92.16
5952;BME280;3001;42.622;23.194;2023-06-01T10:06:53;91499.09;;;22.00;91.33
5952;BME280;3001;42.622;23.194;2023-06-01T10:09:21;91497.25;;;22.00;91.80
5952;BME280;3001;42.622;23.194;2023-06-01T10:11:50;91504.69;;;21.88;92.15
5952;BME280;3001;42.622;23.194;2023-06-01T10:14:18;91502.72;;;21.81;93.20
5952;BME280;3001;42.622;23.194;2023-06-01T10:16:48;91504.25;;;21.82;92.39
5952;BME280;3001;42.622;23.194;2023-06-01T10:19:17;91495.56;;;21.52;92.83
5952;BME280;3001;42.622;23.194;2023-06-01T10:21:44;91496.97;;;21.43;92.92
5952;BME280;3001;42.622;23.194;2023-06-01T10:24:12;91501.50;;;21.42;93.55
5952;BME280;3001;42.622;23.194;2023-06-01T10:26:44;91493.19;;;21.11;94.87
5952;BME280;3001;42.622;23.194;2023-06-01T10:29:16;91490.28;;;20.90;96.81
5952;BME280;3001;42.622;23.194;2023-06-01T10:31:44;91478.06;;;20.82;98.39
5952;BME280;3001;42.622;23.194;2023-06-01T10:34:11;91479.31;;;20.88;98.95
5952;BME280;3001;42.622;23.194;2023-06-01T10:37:12;91470.69;;;20.91;100.00
5952;BME280;3001;42.622;23.194;2023-06-01T10:39:40;91478.84;;;20.83;100.00
5952;BME280;3001;42.622;23.194;2023-06-01T10:42:40;91467.72;;;20.96;98.79
5952;BME280;3001;42.622;23.194;2023-06-01T10:45:37;91467.00;;;20.99;98.16
5952;BME280;3001;42.622;23.194;2023-06-01T10:48:06;91471.34;;;20.85;97.23
5952;BME280;3001;42.622;23.194;2023-06-01T10:50:33;91464.22;;;20.63;97.41
5952;BME280;3001;42.622;23.194;2023-06-01T10:53:25;91456.63;;;20.58;97.80
5952;BME280;3001;42.622;23.194;2023-06-01T10:56:20;91458.09;;;20.55;98.53
5952;BME280;3001;42.622;23.194;2023-06-01T10:59:09;91451.34;;;20.58;99.08
5952;BME280;3001;42.622;23.194;2023-06-01T11:01:38;91448.38;;;20.63;97.81
5952;BME280;3001;42.622;23.194;2023-06-01T11:04:06;91447.31;;;20.67;97.49
5952;BME280;3001;42.622;23.194;2023-06-01T11:06:34;91446.22;;;20.72;97.73
5952;BME280;3001;42.622;23.194;2023-06-01T11:09:03;91436.50;;;20.76;99.05
5952;BME280;3001;42.622;23.194;2023-06-01T11:11:57;91433.81;;;20.72;99.38
5952;BME280;3001;42.622;23.194;2023-06-01T11:14:26;91439.50;;;20.74;99.39
5952;BME280;3001;42.622;23.194;2023-06-01T11:17:25;91426.50;;;20.88;99.28
5952;BME280;3001;42.622;23.194;2023-06-01T11:19:57;91416.78;;;20.96;99.96
5952;BME280;3001;42.622;23.194;2023-06-01T11:22:24;91423.47;;;21.19;99.96
5952;BME280;3001;42.622;23.194;2023-06-01T11:24:51;91418.22;;;21.22;99.03
5952;BME280;3001;42.622;23.194;2023-06-01T11:27:19;91416.44;;;21.33;97.76
5952;BME280;3001;42.622;23.194;2023-06-01T11:29:47;91413.38;;;21.28;96.73
5952;BME280;3001;42.622;23.194;2023-06-01T11:32:22;91410.06;;;21.34;97.00
5952;BME280;3001;42.622;23.194;2023-06-01T11:34:48;91399.16;;;21.39;96.60
5952;BME280;3001;42.622;23.194;2023-06-01T11:37:18;91408.59;;;21.40;96.90
5952;BME280;3001;42.622;23.194;2023-06-01T11:39:45;91404.03;;;21.37;95.60
5952;BME280;3001;42.622;23.194;2023-06-01T11:42:14;91408.50;;;21.30;96.79
5952;BME280;3001;42.622;23.194;2023-06-01T11:44:43;91400.19;;;21.31;97.05
5952;BME280;3001;42.622;23.194;2023-06-01T11:47:12;91401.31;;;21.30;95.94
5952;BME280;3001;42.622;23.194;2023-06-01T11:49:45;91404.28;;;21.25;97.52
5952;BME280;3001;42.622;23.194;2023-06-01T11:52:13;91397.19;;;21.33;98.96
5952;BME280;3001;42.622;23.194;2023-06-01T11:54:40;91397.75;;;21.52;98.65
5952;BME280;3001;42.622;23.194;2023-06-01T11:57:07;91390.06;;;21.37;99.61
5952;BME280;3001;42.622;23.194;2023-06-01T11:59:39;91395.59;;;21.61;99.03
5952;BME280;3001;42.622;23.194;2023-06-01T12:02:16;91402.19;;;21.78;97.24
5952;BME280;3001;42.622;23.194;2023-06-01T12:04:55;91392.81;;;21.87;97.60
5952;BME280;3001;42.622;23.194;2023-06-01T12:07:23;91398.06;;;21.84;93.64
5952;BME280;3001;42.622;23.194;2023-06-01T12:09:51;91403.34;;;21.84;91.25
5952;BME280;3001;42.622;23.194;2023-06-01T12:14:48;91393.75;;;22.12;96.72
5952;BME280;3001;42.622;23.194;2023-06-01T12:17:15;91386.00;;;22.37;96.34
5952;BME280;3001;42.622;23.194;2023-06-01T12:19:45;91375.53;;;22.51;98.72
5952;BME280;3001;42.622;23.194;2023-06-01T12:22:14;91371.34;;;22.50;93.97
5952;BME280;3001;42.622;23.194;2023-06-01T12:24:42;91363.53;;;22.71;95.21
5952;BME280;3001;42.622;23.194;2023-06-01T12:27:13;91363.94;;;22.87;93.25
5952;BME280;3001;42.622;23.194;2023-06-01T12:29:42;91352.28;;;23.01;92.83
5952;BME280;3001;42.622;23.194;2023-06-01T12:32:10;91350.84;;;23.14;95.48
5952;BME280;3001;42.622;23.194;2023-06-01T12:34:38;91341.03;;;23.22;92.96
5952;BME280;3001;42.622;23.194;2023-06-01T12:37:14;91353.91;;;23.27;87.93
5952;BME280;3001;42.622;23.194;2023-06-01T12:39:41;91347.84;;;23.37;85.99
5952;BME280;3001;42.622;23.194;2023-06-01T12:42:09;91350.13;;;23.38;91.23
5952;BME280;3001;42.622;23.194;2023-06-01T12:44:37;91349.34;;;23.38;85.34
5952;BME280;3001;42.622;23.194;2023-06-01T12:47:05;91355.03;;;23.33;86.13
5952;BME280;3001;42.622;23.194;2023-06-01T12:49:33;91349.00;;;23.43;83.64
5952;BME280;3001;42.622;23.194;2023-06-01T12:51:59;91345.94;;;23.23;80.23
5952;BME280;3001;42.622;23.194;2023-06-01T12:54:28;91337.63;;;23.25;84.25
5952;BME280;3001;42.622;23.194;2023-06-01T12:56:54;91337.22;;;23.23;86.86
5952;BME280;3001;42.622;23.194;2023-06-01T12:59:21;91327.03;;;23.35;89.16
5952;BME280;3001;42.622;23.194;2023-06-01T13:01:48;91333.47;;;23.45;90.22
5952;BME280;3001;42.622;23.194;2023-06-01T13:04:15;91328.91;;;23.38;87.74
5952;BME280;3001;42.622;23.194;2023-06-01T13:06:42;91327.78;;;23.39;86.49
5952;BME280;3001;42.622;23.194;2023-06-01T13:09:09;91327.41;;;23.37;86.15
5952;BME280;3001;42.622;23.194;2023-06-01T13:11:37;91320.97;;;23.49;86.31
5952;BME280;3001;42.622;23.194;2023-06-01T13:14:04;91325.53;;;23.55;83.78
5952;BME280;3001;42.622;23.194;2023-06-01T13:16:31;91312.28;;;23.52;85.19
5952;BME280;3001;42.622;23.194;2023-06-01T13:18:58;91317.59;;;23.55;84.65
5952;BME280;3001;42.622;23.194;2023-06-01T13:21:25;91314.53;;;23.50;79.30
5952;BME280;3001;42.622;23.194;2023-06-01T13:23:52;91310.75;;;23.58;80.27
5952;BME280;3001;42.622;23.194;2023-06-01T13:26:19;91308.88;;;23.62;80.47
5952;BME280;3001;42.622;23.194;2023-06-01T13:28:48;91299.00;;;23.62;82.25
5952;BME280;3001;42.622;23.194;2023-06-01T13:31:15;91299.03;;;23.66;70.90